createdAt,value
2023-02-26T00:01:43.077Z,67.30
2023-02-26T00:04:12.378Z,67.45
2023-02-26T00:06:53.039Z,67.43
2023-02-26T00:09:24.998Z,67.68
2023-02-26T00:11:53.743Z,67.75
2023-02-26T00:14:22.571Z,67.71
2023-02-26T00:16:58.373Z,67.98
2023-02-26T00:19:27.085Z,67.71
2023-02-26T00:21:56.070Z,67.84
2023-02-26T00:24:25.893Z,67.85
2023-02-26T00:26:55.436Z,68.06
2023-02-26T00:29:24.522Z,67.79
2023-02-26T00:31:53.464Z,67.99
2023-02-26T00:34:22.384Z,68.05
2023-02-26T00:37:04.794Z,68.09
2023-02-26T00:39:45.095Z,67.70
2023-02-26T00:42:15.049Z,68.55
2023-02-26T00:44:44.355Z,68.27
2023-02-26T00:47:24.010Z,68.65
2023-02-26T00:50:03.812Z,68.92
2023-02-26T00:52:40.295Z,68.79
2023-02-26T00:55:10.254Z,68.42
2023-02-26T00:57:38.800Z,68.99
2023-02-26T01:00:08.439Z,68.25
2023-02-26T01:02:37.689Z,68.57
2023-02-26T01:05:07.521Z,68.09
2023-02-26T01:07:42.307Z,67.92
2023-02-26T01:10:14.078Z,67.50
2023-02-26T01:12:43.086Z,66.99
2023-02-26T01:15:12.437Z,66.50
2023-02-26T01:17:47.070Z,66.51
2023-02-26T01:20:19.548Z,65.63
2023-02-26T01:22:55.151Z,64.62
2023-02-26T01:25:29.093Z,64.42
2023-02-26T01:27:58.087Z,64.95
2023-02-26T01:30:27.728Z,64.70
2023-02-26T01:33:02.766Z,64.93
2023-02-26T01:35:42.100Z,64.60
2023-02-26T01:38:21.919Z,64.77
2023-02-26T01:41:33.364Z,65.50
2023-02-26T01:44:21.741Z,65.09
2023-02-26T01:47:19.161Z,65.37
2023-02-26T01:49:48.188Z,65.56
2023-02-26T01:53:01.952Z,65.95
2023-02-26T01:55:31.492Z,66.47
2023-02-26T01:58:02.720Z,65.81
2023-02-26T02:00:39.654Z,65.76
2023-02-26T02:03:12.674Z,65.89
2023-02-26T02:05:45.929Z,65.56
2023-02-26T02:08:17.011Z,65.58
2023-02-26T02:10:47.565Z,66.18
2023-02-26T02:13:28.727Z,65.83
2023-02-26T02:16:11.335Z,65.45
2023-02-26T02:18:47.425Z,64.89
2023-02-26T02:21:38.076Z,64.80
2023-02-26T02:24:12.986Z,64.79
2023-02-26T02:26:59.755Z,65.29
2023-02-26T02:29:52.831Z,65.50
2023-02-26T02:32:27.360Z,65.51
2023-02-26T02:35:04.218Z,65.05
2023-02-26T02:37:38.596Z,65.06
2023-02-26T02:40:13.151Z,65.99
2023-02-26T02:42:45.944Z,65.74
2023-02-26T02:45:27.725Z,65.58
2023-02-26T02:48:02.734Z,64.74
2023-02-26T02:50:38.966Z,64.75
2023-02-26T02:53:13.044Z,65.50
2023-02-26T02:55:47.654Z,64.97
2023-02-26T02:58:20.423Z,65.91
2023-02-26T03:00:52.447Z,65.26
2023-02-26T03:03:29.679Z,66.20
2023-02-26T03:05:58.187Z,65.67
2023-02-26T03:08:31.503Z,66.19
2023-02-26T03:11:00.120Z,65.09
2023-02-26T03:13:28.745Z,65.87
2023-02-26T03:16:18.343Z,65.83
2023-02-26T03:18:58.337Z,65.21
2023-02-26T03:21:33.152Z,64.73
2023-02-26T03:24:09.090Z,62.60
2023-02-26T03:26:44.886Z,61.99
2023-02-26T03:29:21.409Z,60.70
2023-02-26T03:31:56.815Z,60.26
2023-02-26T03:34:33.507Z,58.54
2023-02-26T03:37:06.245Z,58.46
2023-02-26T03:39:39.530Z,57.48
2023-02-26T03:42:14.663Z,58.34
2023-02-26T03:45:00.462Z,57.49
2023-02-26T03:47:32.147Z,57.84
2023-02-26T03:50:09.390Z,57.11
2023-02-26T03:52:50.409Z,57.10
2023-02-26T03:55:31.503Z,57.25
2023-02-26T03:58:09.528Z,58.09
2023-02-26T04:00:50.342Z,58.24
2023-02-26T04:03:24.380Z,58.51
2023-02-26T04:05:55.410Z,58.59
2023-02-26T04:08:24.940Z,58.98
2023-02-26T04:10:57.025Z,58.57
2023-02-26T04:13:26.121Z,59.01
2023-02-26T04:15:54.516Z,58.77
2023-02-26T04:18:23.220Z,58.35
2023-02-26T04:20:51.673Z,58.48
2023-02-26T04:23:21.545Z,58.07
2023-02-26T04:25:49.921Z,57.20
2023-02-26T04:28:18.938Z,57.05
2023-02-26T04:30:48.809Z,57.33
2023-02-26T04:33:17.841Z,57.68
2023-02-26T04:35:46.716Z,57.31
2023-02-26T04:38:15.162Z,57.37
2023-02-26T04:40:44.974Z,56.87
2023-02-26T04:43:15.650Z,54.58
2023-02-26T04:45:53.344Z,54.06
2023-02-26T04:48:21.989Z,54.81
2023-02-26T04:50:50.651Z,53.97
2023-02-26T04:53:19.120Z,52.33
2023-02-26T04:55:51.956Z,52.46
2023-02-26T04:58:22.011Z,52.64
2023-02-26T05:00:51.496Z,52.76
2023-02-26T05:03:19.912Z,52.05
2023-02-26T05:05:49.331Z,52.46
2023-02-26T05:08:17.915Z,52.19
2023-02-26T05:10:49.385Z,52.48
2023-02-26T05:13:17.828Z,52.38
2023-02-26T05:15:46.415Z,52.81
2023-02-26T05:18:14.992Z,52.98
2023-02-26T05:20:43.486Z,53.80
2023-02-26T05:23:13.366Z,53.37
2023-02-26T05:25:41.917Z,54.02
2023-02-26T05:28:11.788Z,55.03
2023-02-26T05:30:40.215Z,55.87
2023-02-26T05:33:08.668Z,56.53
2023-02-26T05:35:37.098Z,56.57
2023-02-26T05:38:05.649Z,56.35
2023-02-26T05:40:34.003Z,56.74
2023-02-26T05:43:02.460Z,57.89
2023-02-26T05:45:32.246Z,57.78
2023-02-26T05:48:00.739Z,58.16
2023-02-26T05:50:30.616Z,57.67
2023-02-26T05:52:59.350Z,58.58
2023-02-26T05:55:27.771Z,58.61
2023-02-26T05:57:56.171Z,58.85
2023-02-26T06:00:24.856Z,59.38
2023-02-26T06:02:55.026Z,59.53
2023-02-26T06:05:23.908Z,59.24
2023-02-26T06:07:52.372Z,59.64
2023-02-26T06:10:21.119Z,59.98
2023-02-26T06:12:49.482Z,60.52
2023-02-26T06:15:19.235Z,60.18
2023-02-26T06:17:47.753Z,59.73
2023-02-26T06:20:17.904Z,59.92
2023-02-26T06:22:46.351Z,59.21
2023-02-26T06:25:14.881Z,59.17
2023-02-26T06:27:43.637Z,59.62
2023-02-26T06:30:13.237Z,59.48
2023-02-26T06:32:41.637Z,59.82
2023-02-26T06:35:10.937Z,60.36
2023-02-26T06:37:40.748Z,59.99
2023-02-26T06:40:12.183Z,60.96
2023-02-26T06:42:40.609Z,60.54
2023-02-26T06:45:09.751Z,61.15
2023-02-26T06:47:38.137Z,61.05
2023-02-26T06:50:07.382Z,60.71
2023-02-26T06:52:35.829Z,61.24
2023-02-26T06:55:07.402Z,60.66
2023-02-26T06:57:35.770Z,61.28
2023-02-26T07:00:05.032Z,61.69
2023-02-26T07:02:34.209Z,61.33
2023-02-26T07:05:02.621Z,61.80
2023-02-26T07:07:31.474Z,61.45
2023-02-26T07:09:59.889Z,60.74
2023-02-26T07:12:29.740Z,60.16
2023-02-26T07:14:58.045Z,59.75
2023-02-26T07:17:26.952Z,60.26
2023-02-26T07:19:55.342Z,59.17
2023-02-26T07:22:23.780Z,59.97
2023-02-26T07:24:52.315Z,60.26
2023-02-26T07:27:20.757Z,59.90
2023-02-26T07:29:50.462Z,59.60
2023-02-26T07:32:19.953Z,59.71
2023-02-26T07:34:48.346Z,59.25
2023-02-26T07:37:16.814Z,59.03
2023-02-26T07:39:45.325Z,59.20
2023-02-26T07:42:13.934Z,58.04
2023-02-26T07:44:43.809Z,57.53
2023-02-26T07:47:13.779Z,57.86
2023-02-26T07:49:42.591Z,59.07
2023-02-26T07:52:11.377Z,59.19
2023-02-26T07:54:40.020Z,58.26
2023-02-26T07:57:08.431Z,57.21
2023-02-26T07:59:36.911Z,55.81
2023-02-26T08:02:05.422Z,53.75
2023-02-26T08:04:35.239Z,51.61
2023-02-26T08:07:04.042Z,48.20
2023-02-26T08:09:32.434Z,48.81
2023-02-26T08:12:00.754Z,47.68
2023-02-26T08:14:30.232Z,48.15
2023-02-26T08:16:58.656Z,47.01
2023-02-26T08:19:27.213Z,45.01
2023-02-26T08:21:57.026Z,42.77
2023-02-26T08:24:25.422Z,41.96
2023-02-26T08:26:54.136Z,41.67
2023-02-26T08:29:22.538Z,41.38
2023-02-26T08:31:51.153Z,40.41
2023-02-26T08:34:20.332Z,41.35
2023-02-26T08:36:48.764Z,39.58
2023-02-26T08:39:18.668Z,39.01
2023-02-26T08:41:47.218Z,37.12
2023-02-26T08:44:15.654Z,37.67
2023-02-26T08:46:44.057Z,37.27
2023-02-26T08:49:12.546Z,36.83
2023-02-26T08:51:40.909Z,36.09
2023-02-26T08:54:09.950Z,35.12
2023-02-26T08:56:39.667Z,32.88
2023-02-26T08:59:10.186Z,33.86
2023-02-26T09:01:38.724Z,33.29
2023-02-26T09:04:07.012Z,31.81
2023-02-26T09:06:35.477Z,34.42
2023-02-26T09:09:03.943Z,35.02
2023-02-26T09:11:32.629Z,33.47
2023-02-26T09:14:03.839Z,33.29
2023-02-26T09:16:35.561Z,34.67
2023-02-26T09:19:04.927Z,32.60
2023-02-26T09:21:33.508Z,33.61
2023-02-26T09:24:01.916Z,31.56
2023-02-26T09:26:30.366Z,32.27
2023-02-26T09:28:58.772Z,32.56
2023-02-26T09:31:28.924Z,33.13
2023-02-26T09:33:57.564Z,32.91
2023-02-26T09:36:26.279Z,32.65
2023-02-26T09:38:54.883Z,31.67
2023-02-26T09:41:28.517Z,30.96
2023-02-26T09:44:11.947Z,30.19
2023-02-26T09:46:48.182Z,29.75
2023-02-26T09:49:32.388Z,29.67
2023-02-26T09:52:07.728Z,29.84
2023-02-26T09:54:44.566Z,29.87
2023-02-26T09:57:23.593Z,29.40
2023-02-26T09:59:52.356Z,29.08
2023-02-26T10:02:28.053Z,28.81
2023-02-26T10:05:07.685Z,29.74
2023-02-26T10:07:45.493Z,28.83
2023-02-26T10:10:23.584Z,29.69
2023-02-26T10:12:53.844Z,28.62
2023-02-26T10:15:26.114Z,29.34
2023-02-26T10:18:05.987Z,29.54
2023-02-26T10:20:39.883Z,29.35
2023-02-26T10:23:19.209Z,29.28
2023-02-26T10:25:51.163Z,30.90
2023-02-26T10:28:37.255Z,28.94
2023-02-26T10:31:13.527Z,29.49
2023-02-26T10:33:51.579Z,30.65
2023-02-26T10:36:26.300Z,29.21
2023-02-26T10:39:03.923Z,29.84
2023-02-26T10:41:35.238Z,28.70
2023-02-26T10:44:13.231Z,30.51
2023-02-26T10:46:50.748Z,28.86
2023-02-26T10:49:48.431Z,28.86
2023-02-26T10:52:18.693Z,28.62
2023-02-26T10:54:56.895Z,28.02
2023-02-26T10:57:34.221Z,28.84
2023-02-26T11:00:04.434Z,29.02
2023-02-26T11:02:40.354Z,28.23
2023-02-26T11:05:21.785Z,27.16
2023-02-26T11:07:53.677Z,26.25
2023-02-26T11:10:25.729Z,26.49
2023-02-26T11:12:54.564Z,27.33
2023-02-26T11:15:26.908Z,26.34
2023-02-26T11:17:57.922Z,27.04
2023-02-26T11:20:35.192Z,27.43
2023-02-26T11:23:07.734Z,26.97
2023-02-26T11:25:37.640Z,26.94
2023-02-26T11:28:08.402Z,27.06
2023-02-26T11:30:39.748Z,26.39
2023-02-26T11:33:19.188Z,27.49
2023-02-26T11:35:50.070Z,26.68
2023-02-26T11:38:23.018Z,27.12
2023-02-26T11:40:57.310Z,28.07
2023-02-26T11:43:28.523Z,28.28
2023-02-26T11:46:00.920Z,27.80
2023-02-26T11:48:37.241Z,26.75
2023-02-26T11:51:10.854Z,27.88
2023-02-26T11:53:44.671Z,27.46
2023-02-26T11:56:15.228Z,26.65
2023-02-26T11:58:47.538Z,25.75
2023-02-26T12:01:18.436Z,25.84
2023-02-26T12:03:51.171Z,27.48
2023-02-26T12:06:24.875Z,25.94
2023-02-26T12:08:54.174Z,26.00
2023-02-26T12:11:44.671Z,24.69
2023-02-26T12:14:27.660Z,26.06
2023-02-26T12:17:08.474Z,25.56
2023-02-26T12:19:47.737Z,26.10
2023-02-26T12:22:39.531Z,26.36
2023-02-26T12:25:39.725Z,26.17
2023-02-26T12:28:24.100Z,26.54
2023-02-26T12:31:24.975Z,25.83
2023-02-26T12:34:04.113Z,26.39
2023-02-26T12:36:49.765Z,25.02
2023-02-26T12:39:37.600Z,26.32
2023-02-26T12:42:18.248Z,26.04
2023-02-26T12:45:01.648Z,26.82
2023-02-26T12:47:44.026Z,25.98
2023-02-26T12:50:35.570Z,26.00
2023-02-26T12:53:30.730Z,26.97
2023-02-26T12:56:22.121Z,26.28
2023-02-26T12:59:01.432Z,24.81
2023-02-26T13:02:00.371Z,25.29
2023-02-26T13:04:55.052Z,27.06
2023-02-26T13:08:01.882Z,25.66
2023-02-26T13:10:38.189Z,25.63
2023-02-26T13:13:27.123Z,25.88
2023-02-26T13:16:10.084Z,27.05
2023-02-26T13:18:48.224Z,27.43
2023-02-26T13:21:21.301Z,25.85
2023-02-26T13:23:53.673Z,26.74
2023-02-26T13:26:23.350Z,26.01
2023-02-26T13:28:57.807Z,26.32
2023-02-26T13:31:30.918Z,27.00
2023-02-26T13:34:06.275Z,26.01
2023-02-26T13:36:35.416Z,26.40
2023-02-26T13:39:22.806Z,27.17
2023-02-26T13:42:00.263Z,26.82
2023-02-26T13:44:37.378Z,27.42
2023-02-26T13:47:21.261Z,26.15
2023-02-26T13:50:04.496Z,26.28
2023-02-26T13:52:36.155Z,26.41
2023-02-26T13:55:06.912Z,26.91
2023-02-26T13:57:38.266Z,27.59
2023-02-26T14:00:28.321Z,27.07
2023-02-26T14:02:59.216Z,27.20
2023-02-26T14:05:50.853Z,26.95
2023-02-26T14:08:48.513Z,27.54
2023-02-26T14:11:34.411Z,27.10
2023-02-26T14:14:25.709Z,26.26
2023-02-26T14:17:35.983Z,27.38
2023-02-26T14:20:26.649Z,26.71
2023-02-26T14:23:30.351Z,28.09
2023-02-26T14:26:06.945Z,27.64
2023-02-26T14:28:43.268Z,27.87
2023-02-26T14:31:22.385Z,26.14
2023-02-26T14:34:09.998Z,27.81
2023-02-26T14:36:45.578Z,27.09
2023-02-26T14:39:25.484Z,26.66
2023-02-26T14:41:59.958Z,27.27
2023-02-26T14:44:31.594Z,25.97
2023-02-26T14:47:01.033Z,27.34
2023-02-26T14:49:33.865Z,27.35
2023-02-26T14:52:24.959Z,27.70
2023-02-26T14:55:09.489Z,27.82
2023-02-26T14:57:45.884Z,28.22
2023-02-26T15:00:25.472Z,28.78
2023-02-26T15:03:24.243Z,28.38
2023-02-26T15:06:08.187Z,27.86
2023-02-26T15:08:47.583Z,27.89
2023-02-26T15:11:34.117Z,28.83
2023-02-26T15:14:34.812Z,28.74
2023-02-26T15:17:14.400Z,28.73
2023-02-26T15:19:57.135Z,29.10
2023-02-26T15:22:46.302Z,27.55
2023-02-26T15:25:23.048Z,28.79
2023-02-26T15:27:51.521Z,28.66
2023-02-26T15:30:20.774Z,28.23
2023-02-26T15:32:49.269Z,28.73
2023-02-26T15:35:20.461Z,28.97
2023-02-26T15:37:53.036Z,28.25
2023-02-26T15:40:22.186Z,28.75
2023-02-26T15:42:53.264Z,29.92
2023-02-26T15:45:27.682Z,28.88
2023-02-26T15:48:00.444Z,28.55
2023-02-26T15:50:32.312Z,27.96
2023-02-26T15:53:04.619Z,27.71
2023-02-26T15:55:37.432Z,28.44
2023-02-26T15:58:09.257Z,28.60
2023-02-26T16:00:39.488Z,29.57
2023-02-26T16:03:07.918Z,29.27
2023-02-26T16:05:38.976Z,29.05
2023-02-26T16:08:12.009Z,28.79
2023-02-26T16:10:44.215Z,28.58
2023-02-26T16:13:17.058Z,29.26
2023-02-26T16:15:46.132Z,28.60
2023-02-26T16:18:19.659Z,29.26
2023-02-26T16:20:50.397Z,29.27
2023-02-26T16:23:24.523Z,29.97
2023-02-26T16:25:56.355Z,30.05
2023-02-26T16:28:28.389Z,29.85
2023-02-26T16:31:00.317Z,29.97
2023-02-26T16:33:34.404Z,29.56
2023-02-26T16:36:06.786Z,29.19
2023-02-26T16:38:47.670Z,29.38
2023-02-26T16:41:16.621Z,29.80
2023-02-26T16:43:56.931Z,29.39
2023-02-26T16:46:36.175Z,29.86
2023-02-26T16:49:08.391Z,30.06
2023-02-26T16:51:39.578Z,30.02
2023-02-26T16:54:16.820Z,30.17
2023-02-26T16:56:47.708Z,31.09
2023-02-26T16:59:20.538Z,30.83
2023-02-26T17:01:54.240Z,30.46
2023-02-26T17:04:26.100Z,30.65
2023-02-26T17:06:54.700Z,31.10
2023-02-26T17:09:38.452Z,31.12
2023-02-26T17:12:13.716Z,31.27
2023-02-26T17:14:44.760Z,30.79
2023-02-26T17:17:13.292Z,31.26
2023-02-26T17:19:41.995Z,31.55
2023-02-26T17:22:16.098Z,31.10
2023-02-26T17:24:47.658Z,31.28
2023-02-26T17:27:19.146Z,31.91
2023-02-26T17:29:51.106Z,32.60
2023-02-26T17:32:22.104Z,32.25
2023-02-26T17:34:50.831Z,32.43
2023-02-26T17:37:19.264Z,32.22
2023-02-26T17:39:49.631Z,32.22
2023-02-26T17:42:21.536Z,31.71
2023-02-26T17:44:50.230Z,31.98
2023-02-26T17:47:21.784Z,32.74
2023-02-26T17:49:50.767Z,32.22
2023-02-26T17:52:19.285Z,33.05
2023-02-26T17:54:49.300Z,33.58
2023-02-26T17:57:19.426Z,32.62
2023-02-26T17:59:48.879Z,33.75
2023-02-26T18:02:23.329Z,32.93
2023-02-26T18:04:52.189Z,33.77
2023-02-26T18:07:21.741Z,33.97
2023-02-26T18:09:51.500Z,33.54
2023-02-26T18:12:21.888Z,34.24
2023-02-26T18:14:50.953Z,34.21
2023-02-26T18:17:23.709Z,34.74
2023-02-26T18:19:52.309Z,33.95
2023-02-26T18:22:25.400Z,33.77
2023-02-26T18:24:56.086Z,34.37
2023-02-26T18:27:26.032Z,34.90
2023-02-26T18:29:55.553Z,35.28
2023-02-26T18:32:25.659Z,35.80
2023-02-26T18:34:56.756Z,34.43
2023-02-26T18:37:28.965Z,35.41
2023-02-26T18:39:58.866Z,34.98
2023-02-26T18:42:29.574Z,35.81
2023-02-26T18:44:58.035Z,35.40
2023-02-26T18:47:27.535Z,35.61
2023-02-26T18:49:57.098Z,35.22
2023-02-26T18:52:25.666Z,36.68
2023-02-26T18:54:54.032Z,35.94
2023-02-26T18:57:24.254Z,35.45
2023-02-26T18:59:52.654Z,35.03
2023-02-26T19:02:20.948Z,35.54
2023-02-26T19:04:49.580Z,34.79
2023-02-26T19:07:17.964Z,34.79
2023-02-26T19:09:46.385Z,35.20
2023-02-26T19:12:19.662Z,34.74
2023-02-26T19:14:49.599Z,35.21
2023-02-26T19:17:17.969Z,35.19
2023-02-26T19:19:46.362Z,36.03
2023-02-26T19:22:16.778Z,35.44
2023-02-26T19:24:45.760Z,35.65
2023-02-26T19:27:16.389Z,35.45
2023-02-26T19:29:44.896Z,35.77
2023-02-26T19:32:14.840Z,35.29
2023-02-26T19:34:43.517Z,34.73
2023-02-26T19:37:12.043Z,35.12
2023-02-26T19:39:40.641Z,35.19
2023-02-26T19:42:09.173Z,35.32
2023-02-26T19:44:37.613Z,35.94
2023-02-26T19:47:06.106Z,34.73
2023-02-26T19:49:36.334Z,34.54
2023-02-26T19:52:04.799Z,36.06
2023-02-26T19:54:33.264Z,36.26
2023-02-26T19:57:01.629Z,34.89
2023-02-26T19:59:30.297Z,35.55
2023-02-26T20:01:58.761Z,36.21
2023-02-26T20:04:27.248Z,35.12
2023-02-26T20:06:57.167Z,36.04
2023-02-26T20:09:25.560Z,36.19
2023-02-26T20:11:54.013Z,36.27
2023-02-26T20:14:22.529Z,36.22
2023-02-26T20:16:51.169Z,36.12
2023-02-26T20:19:20.529Z,36.84
2023-02-26T20:21:49.718Z,36.74
2023-02-26T20:24:20.245Z,36.46
2023-02-26T20:26:49.158Z,36.32
2023-02-26T20:29:18.608Z,37.29
2023-02-26T20:31:49.691Z,37.15
2023-02-26T20:34:19.448Z,37.06
2023-02-26T20:36:50.093Z,37.62
2023-02-26T20:39:21.191Z,37.08
2023-02-26T20:41:50.566Z,37.56
2023-02-26T20:44:19.011Z,37.22
2023-02-26T20:46:47.746Z,36.77
2023-02-26T20:49:16.166Z,37.38
2023-02-26T20:51:45.259Z,37.76
2023-02-26T20:54:14.839Z,38.14
2023-02-26T20:56:45.445Z,38.77
2023-02-26T20:59:13.847Z,39.56
2023-02-26T21:01:42.351Z,38.34
2023-02-26T21:04:11.265Z,38.92
2023-02-26T21:06:40.165Z,39.81
2023-02-26T21:09:11.235Z,39.66
2023-02-26T21:11:40.056Z,39.83
2023-02-26T21:14:10.837Z,39.91
2023-02-26T21:16:41.548Z,40.25
2023-02-26T21:19:10.107Z,40.14
2023-02-26T21:21:38.529Z,39.36
2023-02-26T21:24:07.562Z,39.15
2023-02-26T21:26:36.948Z,39.98
2023-02-26T21:29:05.468Z,39.66
2023-02-26T21:31:35.276Z,40.34
2023-02-26T21:34:30.024Z,39.91
2023-02-26T21:36:52.809Z,40.01
2023-02-26T21:39:22.134Z,40.17
2023-02-26T21:41:50.544Z,40.38
2023-02-26T21:44:19.012Z,40.70
2023-02-26T21:46:48.929Z,41.13
2023-02-26T21:49:17.428Z,41.16
2023-02-26T21:51:45.879Z,41.02
2023-02-26T21:54:14.299Z,41.62
2023-02-26T21:56:42.795Z,41.92
2023-02-26T21:59:11.130Z,41.79
2023-02-26T22:01:40.832Z,42.71
2023-02-26T22:04:10.736Z,42.97
2023-02-26T22:06:40.066Z,43.63
2023-02-26T22:09:08.534Z,43.53
2023-02-26T22:11:37.110Z,43.49
2023-02-26T22:14:05.578Z,43.22
2023-02-26T22:16:34.163Z,44.27
2023-02-26T22:19:02.642Z,44.73
2023-02-26T22:21:32.549Z,45.01
2023-02-26T22:24:03.114Z,45.18
2023-02-26T22:26:32.257Z,45.48
2023-02-26T22:29:00.994Z,45.59
2023-02-26T22:31:30.091Z,46.24
2023-02-26T22:33:58.653Z,46.50
2023-02-26T22:36:27.698Z,45.90
2023-02-26T22:38:57.849Z,46.21
2023-02-26T22:41:26.368Z,47.17
2023-02-26T22:43:55.169Z,47.37
2023-02-26T22:46:24.567Z,47.35
2023-02-26T22:48:53.900Z,47.45
2023-02-26T22:51:22.504Z,47.18
2023-02-26T22:53:51.394Z,47.20
2023-02-26T22:56:21.358Z,46.82
2023-02-26T22:58:49.894Z,46.68
2023-02-26T23:01:19.632Z,47.01
2023-02-26T23:03:48.175Z,47.34
2023-02-26T23:06:17.127Z,47.18
2023-02-26T23:08:46.535Z,48.01
2023-02-26T23:11:15.101Z,47.61
2023-02-26T23:13:45.012Z,47.51
2023-02-26T23:16:13.902Z,47.59
2023-02-26T23:18:45.671Z,47.64
2023-02-26T23:21:14.080Z,47.83
2023-02-26T23:23:42.545Z,47.42
2023-02-26T23:26:11.791Z,48.33
2023-02-26T23:28:40.392Z,48.75
2023-02-26T23:31:10.352Z,48.49
2023-02-26T23:33:38.806Z,48.69
2023-02-26T23:36:08.135Z,49.22
2023-02-26T23:38:36.548Z,49.80
2023-02-26T23:41:05.081Z,49.82
2023-02-26T23:43:34.703Z,49.79
2023-02-26T23:46:04.591Z,49.86
2023-02-26T23:48:34.544Z,50.85
2023-02-26T23:51:03.175Z,50.29
2023-02-26T23:53:31.509Z,49.77
2023-02-26T23:56:01.264Z,49.39
2023-02-26T23:58:31.172Z,50.04
